METAR & TAF

RJAA 200730Z 03004KT 9999 FEW030 BKN070 BKN/// 08/02 Q1015 NOSIG RMK 1CU030 5AC070 A2999
RJAA 200700Z 07002KT 9999 FEW030 SCT070 BKN/// 08/01 Q1016 NOSIG RMK 1CU030 3AC070 A3000
RJAA 200630Z 11004KT 9999 FEW030 SCT050 BKN/// 08/01 Q1016 NOSIG
RJAA 200600Z 12004KT 9999 FEW030 SCT045 BKN/// 09/00 Q1016 NOSIG
RJAA 200530Z VRB01KT 9999 FEW030 SCT050 BKN080 09/M00 Q1016 BECMG 09005KT
RJAA 200500Z VRB02KT 9999 FEW030 BKN090 09/M00 Q1016 BECMG 09005KT
RJAA 200430Z VRB02KT 9999 FEW030 SCT050 BKN090 09/M02 Q1016 BECMG 09005KT
RJAA 200400Z VRB01KT 9999 FEW030 SCT080 BKN100 08/01 Q1017 BECMG 07005KT
RJAA 200330Z 30003KT 250V330 9999 FEW030 BKN070 08/01 Q1017 NOSIG RMK 1CU030 7AC070 A3004
RJAA 200300Z 27003KT 240V300 9999 FEW030 BKN080 08/00 Q1017 NOSIG RMK 1CU030 7AC080 A3005

TAF RJAA 200506Z 2006/2112 10005KT 9999 FEW030 BKN045
  BECMG 2012/2014 33005KT
  TEMPO 2021/2100 33015G25KT